sensor_id;sensor_type;location;lat;lon;timestamp;P1;durP1;ratioP1;P2;durP2;ratioP2
35188;SDS011;21762;54.480;18.556;2022-07-05T00:01:41;3.53;;;1.20;;
35188;SDS011;21762;54.480;18.556;2022-07-05T00:04:09;2.33;;;1.00;;
35188;SDS011;21762;54.480;18.556;2022-07-05T00:06:37;5.45;;;1.30;;
35188;SDS011;21762;54.480;18.556;2022-07-05T00:09:27;3.42;;;1.05;;
35188;SDS011;21762;54.480;18.556;2022-07-05T00:11:56;1.90;;;1.42;;
35188;SDS011;21762;54.480;18.556;2022-07-05T00:14:24;5.35;;;1.23;;
35188;SDS011;21762;54.480;18.556;2022-07-05T00:16:52;3.90;;;1.80;;
35188;SDS011;21762;54.480;18.556;2022-07-05T00:19:20;1.98;;;1.00;;
35188;SDS011;21762;54.480;18.556;2022-07-05T00:21:48;5.82;;;1.13;;
35188;SDS011;21762;54.480;18.556;2022-07-05T00:24:16;3.90;;;1.08;;
35188;SDS011;21762;54.480;18.556;2022-07-05T00:26:46;2.90;;;1.00;;
35188;SDS011;21762;54.480;18.556;2022-07-05T00:29:14;1.55;;;0.90;;
35188;SDS011;21762;54.480;18.556;2022-07-05T00:31:42;4.15;;;1.02;;
35188;SDS011;21762;54.480;18.556;2022-07-05T00:34:10;1.58;;;0.70;;
35188;SDS011;21762;54.480;18.556;2022-07-05T00:36:39;1.10;;;0.82;;
35188;SDS011;21762;54.480;18.556;2022-07-05T00:39:08;4.60;;;0.95;;
35188;SDS011;21762;54.480;18.556;2022-07-05T00:41:36;2.45;;;1.02;;
35188;SDS011;21762;54.480;18.556;2022-07-05T00:44:07;4.95;;;0.93;;
35188;SDS011;21762;54.480;18.556;2022-07-05T00:46:36;3.35;;;1.00;;
35188;SDS011;21762;54.480;18.556;2022-07-05T00:49:05;2.85;;;1.00;;
35188;SDS011;21762;54.480;18.556;2022-07-05T00:51:35;1.73;;;0.93;;
35188;SDS011;21762;54.480;18.556;2022-07-05T00:54:11;1.63;;;0.88;;
35188;SDS011;21762;54.480;18.556;2022-07-05T00:56:40;1.38;;;0.77;;
35188;SDS011;21762;54.480;18.556;2022-07-05T00:59:09;5.45;;;1.02;;
35188;SDS011;21762;54.480;18.556;2022-07-05T01:01:37;7.75;;;2.15;;
35188;SDS011;21762;54.480;18.556;2022-07-05T01:04:05;2.28;;;1.13;;
35188;SDS011;21762;54.480;18.556;2022-07-05T01:06:34;2.75;;;0.80;;
35188;SDS011;21762;54.480;18.556;2022-07-05T01:09:02;2.05;;;1.05;;
35188;SDS011;21762;54.480;18.556;2022-07-05T01:11:30;1.60;;;1.08;;
35188;SDS011;21762;54.480;18.556;2022-07-05T01:13:58;5.68;;;1.10;;
35188;SDS011;21762;54.480;18.556;2022-07-05T01:16:28;2.45;;;0.98;;
35188;SDS011;21762;54.480;18.556;2022-07-05T01:18:56;1.75;;;0.82;;
35188;SDS011;21762;54.480;18.556;2022-07-05T01:21:25;1.45;;;1.08;;
35188;SDS011;21762;54.480;18.556;2022-07-05T01:23:56;4.55;;;0.93;;
35188;SDS011;21762;54.480;18.556;2022-07-05T01:26:24;4.00;;;0.88;;
35188;SDS011;21762;54.480;18.556;2022-07-05T01:28:52;2.75;;;0.88;;
35188;SDS011;21762;54.480;18.556;2022-07-05T01:31:20;4.35;;;1.10;;
35188;SDS011;21762;54.480;18.556;2022-07-05T01:33:49;4.35;;;1.08;;
35188;SDS011;21762;54.480;18.556;2022-07-05T01:36:17;3.10;;;1.25;;
35188;SDS011;21762;54.480;18.556;2022-07-05T01:38:45;2.72;;;0.98;;
35188;SDS011;21762;54.480;18.556;2022-07-05T01:41:15;4.07;;;1.30;;
35188;SDS011;21762;54.480;18.556;2022-07-05T01:43:44;2.50;;;0.90;;
35188;SDS011;21762;54.480;18.556;2022-07-05T01:46:12;2.83;;;0.98;;
35188;SDS011;21762;54.480;18.556;2022-07-05T01:48:43;3.08;;;1.15;;
35188;SDS011;21762;54.480;18.556;2022-07-05T01:51:13;3.05;;;1.48;;
35188;SDS011;21762;54.480;18.556;2022-07-05T01:53:46;2.53;;;0.63;;
35188;SDS011;21762;54.480;18.556;2022-07-05T01:56:17;1.02;;;0.82;;
35188;SDS011;21762;54.480;18.556;2022-07-05T01:58:45;1.45;;;1.10;;
35188;SDS011;21762;54.480;18.556;2022-07-05T02:01:13;1.73;;;0.95;;
35188;SDS011;21762;54.480;18.556;2022-07-05T02:03:42;3.75;;;1.25;;
35188;SDS011;21762;54.480;18.556;2022-07-05T02:06:26;2.40;;;1.00;;
35188;SDS011;21762;54.480;18.556;2022-07-05T02:08:55;4.10;;;1.15;;
35188;SDS011;21762;54.480;18.556;2022-07-05T02:11:25;1.45;;;1.00;;
35188;SDS011;21762;54.480;18.556;2022-07-05T02:13:53;3.47;;;1.20;;
35188;SDS011;21762;54.480;18.556;2022-07-05T02:16:22;5.05;;;1.02;;
35188;SDS011;21762;54.480;18.556;2022-07-05T02:18:51;4.00;;;1.00;;
35188;SDS011;21762;54.480;18.556;2022-07-05T02:21:19;1.05;;;0.93;;
35188;SDS011;21762;54.480;18.556;2022-07-05T02:23:50;5.25;;;1.20;;
35188;SDS011;21762;54.480;18.556;2022-07-05T02:26:21;1.70;;;1.05;;
35188;SDS011;21762;54.480;18.556;2022-07-05T02:28:51;3.22;;;1.05;;
35188;SDS011;21762;54.480;18.556;2022-07-05T02:31:19;7.05;;;1.35;;
35188;SDS011;21762;54.480;18.556;2022-07-05T02:33:51;3.10;;;1.20;;
35188;SDS011;21762;54.480;18.556;2022-07-05T02:36:21;6.60;;;1.63;;
35188;SDS011;21762;54.480;18.556;2022-07-05T02:38:50;5.00;;;1.30;;
35188;SDS011;21762;54.480;18.556;2022-07-05T02:41:18;2.95;;;1.13;;
35188;SDS011;21762;54.480;18.556;2022-07-05T02:43:50;4.35;;;1.35;;
35188;SDS011;21762;54.480;18.556;2022-07-05T02:46:26;1.70;;;0.80;;
35188;SDS011;21762;54.480;18.556;2022-07-05T02:48:57;1.10;;;0.93;;
35188;SDS011;21762;54.480;18.556;2022-07-05T02:51:29;5.45;;;1.00;;
35188;SDS011;21762;54.480;18.556;2022-07-05T02:53:59;2.20;;;1.15;;
35188;SDS011;21762;54.480;18.556;2022-07-05T02:56:29;1.42;;;0.88;;
35188;SDS011;21762;54.480;18.556;2022-07-05T02:58:59;2.88;;;1.17;;
35188;SDS011;21762;54.480;18.556;2022-07-05T03:01:31;2.38;;;1.20;;
35188;SDS011;21762;54.480;18.556;2022-07-05T03:04:04;1.70;;;0.80;;
35188;SDS011;21762;54.480;18.556;2022-07-05T03:06:33;5.25;;;1.10;;
35188;SDS011;21762;54.480;18.556;2022-07-05T03:09:01;3.00;;;1.10;;
35188;SDS011;21762;54.480;18.556;2022-07-05T03:11:30;2.78;;;1.10;;
35188;SDS011;21762;54.480;18.556;2022-07-05T03:14:00;3.10;;;0.95;;
35188;SDS011;21762;54.480;18.556;2022-07-05T03:16:28;1.23;;;1.10;;
35188;SDS011;21762;54.480;18.556;2022-07-05T03:19:00;3.50;;;1.10;;
35188;SDS011;21762;54.480;18.556;2022-07-05T03:21:28;2.58;;;0.82;;
35188;SDS011;21762;54.480;18.556;2022-07-05T03:23:57;4.80;;;1.08;;
35188;SDS011;21762;54.480;18.556;2022-07-05T03:26:25;1.65;;;1.20;;
35188;SDS011;21762;54.480;18.556;2022-07-05T03:28:53;2.47;;;0.93;;
35188;SDS011;21762;54.480;18.556;2022-07-05T03:31:22;2.88;;;0.95;;
35188;SDS011;21762;54.480;18.556;2022-07-05T03:33:51;4.97;;;0.80;;
35188;SDS011;21762;54.480;18.556;2022-07-05T03:36:20;4.80;;;1.00;;
35188;SDS011;21762;54.480;18.556;2022-07-05T03:38:49;3.72;;;1.10;;
35188;SDS011;21762;54.480;18.556;2022-07-05T03:41:18;2.53;;;0.95;;
35188;SDS011;21762;54.480;18.556;2022-07-05T03:43:48;2.42;;;1.00;;
35188;SDS011;21762;54.480;18.556;2022-07-05T03:46:16;2.55;;;0.88;;
35188;SDS011;21762;54.480;18.556;2022-07-05T03:48:46;1.52;;;1.00;;
35188;SDS011;21762;54.480;18.556;2022-07-05T03:51:16;3.28;;;1.17;;
35188;SDS011;21762;54.480;18.556;2022-07-05T03:53:46;2.88;;;1.23;;
35188;SDS011;21762;54.480;18.556;2022-07-05T03:56:15;3.58;;;1.00;;
35188;SDS011;21762;54.480;18.556;2022-07-05T03:58:49;1.25;;;0.73;;
35188;SDS011;21762;54.480;18.556;2022-07-05T04:01:18;1.40;;;0.98;;
35188;SDS011;21762;54.480;18.556;2022-07-05T04:03:48;3.83;;;1.20;;
35188;SDS011;21762;54.480;18.556;2022-07-05T04:06:17;7.55;;;1.05;;
35188;SDS011;21762;54.480;18.556;2022-07-05T04:08:47;2.70;;;0.90;;
35188;SDS011;21762;54.480;18.556;2022-07-05T04:11:15;6.20;;;1.00;;
35188;SDS011;21762;54.480;18.556;2022-07-05T04:16:16;2.33;;;0.70;;
35188;SDS011;21762;54.480;18.556;2022-07-05T04:18:44;2.90;;;0.80;;
35188;SDS011;21762;54.480;18.556;2022-07-05T04:21:14;4.63;;;1.20;;
35188;SDS011;21762;54.480;18.556;2022-07-05T04:23:43;2.40;;;0.70;;
35188;SDS011;21762;54.480;18.556;2022-07-05T04:26:11;4.60;;;0.95;;
35188;SDS011;21762;54.480;18.556;2022-07-05T04:28:44;1.85;;;0.70;;
35188;SDS011;21762;54.480;18.556;2022-07-05T04:31:20;3.13;;;0.90;;
35188;SDS011;21762;54.480;18.556;2022-07-05T04:33:50;1.17;;;0.80;;
35188;SDS011;21762;54.480;18.556;2022-07-05T04:36:23;1.88;;;1.10;;
35188;SDS011;21762;54.480;18.556;2022-07-05T04:38:54;1.95;;;0.88;;
35188;SDS011;21762;54.480;18.556;2022-07-05T04:41:25;1.73;;;0.60;;
35188;SDS011;21762;54.480;18.556;2022-07-05T04:43:53;4.03;;;0.65;;
35188;SDS011;21762;54.480;18.556;2022-07-05T04:46:22;1.65;;;1.10;;
35188;SDS011;21762;54.480;18.556;2022-07-05T04:48:51;1.98;;;0.70;;
35188;SDS011;21762;54.480;18.556;2022-07-05T04:51:19;1.52;;;1.10;;
35188;SDS011;21762;54.480;18.556;2022-07-05T04:53:49;6.38;;;0.80;;
35188;SDS011;21762;54.480;18.556;2022-07-05T04:56:17;1.73;;;1.00;;
35188;SDS011;21762;54.480;18.556;2022-07-05T04:58:45;4.25;;;0.68;;
35188;SDS011;21762;54.480;18.556;2022-07-05T05:01:13;1.77;;;0.90;;
35188;SDS011;21762;54.480;18.556;2022-07-05T05:03:41;2.67;;;1.02;;
35188;SDS011;21762;54.480;18.556;2022-07-05T05:06:10;3.55;;;1.00;;
35188;SDS011;21762;54.480;18.556;2022-07-05T05:08:39;3.45;;;1.15;;
35188;SDS011;21762;54.480;18.556;2022-07-05T05:11:09;1.85;;;0.90;;
35188;SDS011;21762;54.480;18.556;2022-07-05T05:13:37;4.32;;;0.80;;
35188;SDS011;21762;54.480;18.556;2022-07-05T05:16:05;1.38;;;0.75;;
35188;SDS011;21762;54.480;18.556;2022-07-05T05:18:34;3.42;;;0.70;;
35188;SDS011;21762;54.480;18.556;2022-07-05T05:21:02;4.07;;;0.90;;
35188;SDS011;21762;54.480;18.556;2022-07-05T05:23:30;0.90;;;0.88;;
35188;SDS011;21762;54.480;18.556;2022-07-05T05:25:58;2.60;;;1.35;;
35188;SDS011;21762;54.480;18.556;2022-07-05T05:28:28;3.05;;;0.57;;
35188;SDS011;21762;54.480;18.556;2022-07-05T05:30:56;1.63;;;0.80;;
35188;SDS011;21762;54.480;18.556;2022-07-05T05:33:24;3.85;;;0.60;;
35188;SDS011;21762;54.480;18.556;2022-07-05T05:35:53;3.10;;;0.75;;
35188;SDS011;21762;54.480;18.556;2022-07-05T05:38:21;2.05;;;0.73;;
35188;SDS011;21762;54.480;18.556;2022-07-05T05:40:49;3.63;;;0.80;;
35188;SDS011;21762;54.480;18.556;2022-07-05T05:43:17;1.63;;;0.75;;
35188;SDS011;21762;54.480;18.556;2022-07-05T05:45:47;3.55;;;0.60;;
35188;SDS011;21762;54.480;18.556;2022-07-05T05:48:15;2.45;;;0.88;;
35188;SDS011;21762;54.480;18.556;2022-07-05T05:50:43;2.95;;;0.57;;
35188;SDS011;21762;54.480;18.556;2022-07-05T05:53:12;3.75;;;0.70;;
35188;SDS011;21762;54.480;18.556;2022-07-05T05:55:40;6.15;;;0.98;;
35188;SDS011;21762;54.480;18.556;2022-07-05T05:58:11;4.60;;;0.98;;
35188;SDS011;21762;54.480;18.556;2022-07-05T06:00:40;2.67;;;0.85;;
35188;SDS011;21762;54.480;18.556;2022-07-05T06:03:10;2.97;;;0.60;;
35188;SDS011;21762;54.480;18.556;2022-07-05T06:05:38;2.40;;;0.55;;
35188;SDS011;21762;54.480;18.556;2022-07-05T06:08:06;7.95;;;1.63;;
35188;SDS011;21762;54.480;18.556;2022-07-05T06:10:35;4.85;;;0.95;;
35188;SDS011;21762;54.480;18.556;2022-07-05T06:13:04;3.50;;;1.60;;
35188;SDS011;21762;54.480;18.556;2022-07-05T06:15:32;0.88;;;0.70;;
35188;SDS011;21762;54.480;18.556;2022-07-05T06:18:00;3.72;;;0.80;;
35188;SDS011;21762;54.480;18.556;2022-07-05T06:20:30;2.80;;;0.88;;
35188;SDS011;21762;54.480;18.556;2022-07-05T06:22:59;2.17;;;0.70;;
35188;SDS011;21762;54.480;18.556;2022-07-05T06:25:28;5.82;;;0.80;;
35188;SDS011;21762;54.480;18.556;2022-07-05T06:27:57;4.43;;;0.70;;
35188;SDS011;21762;54.480;18.556;2022-07-05T06:30:28;3.17;;;0.60;;
35188;SDS011;21762;54.480;18.556;2022-07-05T06:32:57;2.05;;;0.90;;
35188;SDS011;21762;54.480;18.556;2022-07-05T06:35:26;1.27;;;0.52;;
35188;SDS011;21762;54.480;18.556;2022-07-05T06:37:57;9.77;;;1.23;;
35188;SDS011;21762;54.480;18.556;2022-07-05T06:40:25;3.28;;;0.60;;
35188;SDS011;21762;54.480;18.556;2022-07-05T06:42:55;3.08;;;0.70;;
35188;SDS011;21762;54.480;18.556;2022-07-05T06:45:31;2.15;;;0.75;;
35188;SDS011;21762;54.480;18.556;2022-07-05T06:48:00;1.58;;;0.52;;
35188;SDS011;21762;54.480;18.556;2022-07-05T06:50:30;2.35;;;0.60;;
35188;SDS011;21762;54.480;18.556;2022-07-05T06:53:01;3.72;;;0.75;;
35188;SDS011;21762;54.480;18.556;2022-07-05T06:55:30;3.80;;;0.60;;
35188;SDS011;21762;54.480;18.556;2022-07-05T06:57:59;3.03;;;0.98;;
35188;SDS011;21762;54.480;18.556;2022-07-05T07:00:43;3.78;;;0.60;;
35188;SDS011;21762;54.480;18.556;2022-07-05T07:03:31;4.47;;;0.60;;
35188;SDS011;21762;54.480;18.556;2022-07-05T07:06:20;3.15;;;0.55;;
35188;SDS011;21762;54.480;18.556;2022-07-05T07:08:50;1.60;;;0.85;;
35188;SDS011;21762;54.480;18.556;2022-07-05T07:11:34;1.67;;;0.50;;
35188;SDS011;21762;54.480;18.556;2022-07-05T07:14:02;1.33;;;0.60;;
35188;SDS011;21762;54.480;18.556;2022-07-05T07:16:30;4.82;;;0.73;;
35188;SDS011;21762;54.480;18.556;2022-07-05T07:18:59;2.28;;;0.70;;
35188;SDS011;21762;54.480;18.556;2022-07-05T07:21:36;3.75;;;1.13;;
35188;SDS011;21762;54.480;18.556;2022-07-05T07:24:06;2.05;;;0.70;;
35188;SDS011;21762;54.480;18.556;2022-07-05T07:26:35;2.45;;;0.70;;
35188;SDS011;21762;54.480;18.556;2022-07-05T07:29:17;7.82;;;0.70;;
35188;SDS011;21762;54.480;18.556;2022-07-05T07:31:45;3.30;;;0.82;;
35188;SDS011;21762;54.480;18.556;2022-07-05T07:34:13;2.25;;;0.55;;
35188;SDS011;21762;54.480;18.556;2022-07-05T07:36:41;1.42;;;0.40;;
35188;SDS011;21762;54.480;18.556;2022-07-05T07:39:11;3.22;;;0.90;;
35188;SDS011;21762;54.480;18.556;2022-07-05T07:41:39;4.47;;;0.60;;
35188;SDS011;21762;54.480;18.556;2022-07-05T07:44:07;0.70;;;0.40;;
35188;SDS011;21762;54.480;18.556;2022-07-05T07:46:35;1.42;;;0.70;;
35188;SDS011;21762;54.480;18.556;2022-07-05T07:49:05;7.00;;;0.85;;
35188;SDS011;21762;54.480;18.556;2022-07-05T07:51:34;3.05;;;0.70;;
35188;SDS011;21762;54.480;18.556;2022-07-05T07:54:02;3.07;;;0.60;;
35188;SDS011;21762;54.480;18.556;2022-07-05T07:56:39;3.03;;;0.43;;
35188;SDS011;21762;54.480;18.556;2022-07-05T07:59:08;3.08;;;0.50;;
35188;SDS011;21762;54.480;18.556;2022-07-05T08:01:36;7.45;;;0.95;;
35188;SDS011;21762;54.480;18.556;2022-07-05T08:04:09;1.92;;;0.60;;
35188;SDS011;21762;54.480;18.556;2022-07-05T08:06:38;3.38;;;0.50;;
35188;SDS011;21762;54.480;18.556;2022-07-05T08:09:06;2.88;;;0.65;;
35188;SDS011;21762;54.480;18.556;2022-07-05T08:11:37;0.93;;;0.60;;
35188;SDS011;21762;54.480;18.556;2022-07-05T08:14:06;2.50;;;0.82;;
35188;SDS011;21762;54.480;18.556;2022-07-05T08:16:35;1.70;;;0.65;;
35188;SDS011;21762;54.480;18.556;2022-07-05T08:19:03;1.45;;;0.70;;
35188;SDS011;21762;54.480;18.556;2022-07-05T08:21:48;0.60;;;0.60;;
35188;SDS011;21762;54.480;18.556;2022-07-05T08:24:16;1.77;;;0.73;;
35188;SDS011;21762;54.480;18.556;2022-07-05T08:26:45;2.30;;;0.70;;
35188;SDS011;21762;54.480;18.556;2022-07-05T08:29:14;1.02;;;0.55;;
35188;SDS011;21762;54.480;18.556;2022-07-05T08:31:49;1.88;;;0.77;;
35188;SDS011;21762;54.480;18.556;2022-07-05T08:34:18;3.17;;;0.60;;
35188;SDS011;21762;54.480;18.556;2022-07-05T08:36:47;1.25;;;0.70;;
35188;SDS011;21762;54.480;18.556;2022-07-05T08:39:16;1.55;;;0.70;;
35188;SDS011;21762;54.480;18.556;2022-07-05T08:41:48;4.88;;;0.93;;
35188;SDS011;21762;54.480;18.556;2022-07-05T08:44:19;2.42;;;0.68;;
35188;SDS011;21762;54.480;18.556;2022-07-05T08:46:49;1.67;;;0.50;;
35188;SDS011;21762;54.480;18.556;2022-07-05T08:49:21;1.48;;;0.60;;
35188;SDS011;21762;54.480;18.556;2022-07-05T08:51:50;2.88;;;0.65;;
35188;SDS011;21762;54.480;18.556;2022-07-05T08:54:21;1.35;;;0.65;;
35188;SDS011;21762;54.480;18.556;2022-07-05T08:56:50;1.98;;;0.65;;
35188;SDS011;21762;54.480;18.556;2022-07-05T08:59:37;2.50;;;0.70;;
35188;SDS011;21762;54.480;18.556;2022-07-05T09:02:05;1.85;;;0.75;;
35188;SDS011;21762;54.480;18.556;2022-07-05T09:04:35;4.30;;;0.80;;
35188;SDS011;21762;54.480;18.556;2022-07-05T09:07:10;2.90;;;0.73;;
35188;SDS011;21762;54.480;18.556;2022-07-05T09:09:43;2.17;;;0.40;;
35188;SDS011;21762;54.480;18.556;2022-07-05T09:12:12;2.40;;;0.98;;
35188;SDS011;21762;54.480;18.556;2022-07-05T09:14:52;1.65;;;0.60;;
35188;SDS011;21762;54.480;18.556;2022-07-05T09:17:22;1.13;;;0.57;;
35188;SDS011;21762;54.480;18.556;2022-07-05T09:20:05;2.35;;;0.70;;
35188;SDS011;21762;54.480;18.556;2022-07-05T09:25:13;1.88;;;0.65;;
35188;SDS011;21762;54.480;18.556;2022-07-05T09:27:47;1.15;;;0.77;;
35188;SDS011;21762;54.480;18.556;2022-07-05T09:30:24;3.45;;;0.68;;
35188;SDS011;21762;54.480;18.556;2022-07-05T09:33:03;3.38;;;0.70;;
35188;SDS011;21762;54.480;18.556;2022-07-05T09:35:33;1.42;;;0.82;;
35188;SDS011;21762;54.480;18.556;2022-07-05T09:38:02;3.17;;;1.00;;
35188;SDS011;21762;54.480;18.556;2022-07-05T09:40:31;1.52;;;0.90;;
35188;SDS011;21762;54.480;18.556;2022-07-05T09:45:54;2.40;;;1.10;;
35188;SDS011;21762;54.480;18.556;2022-07-05T09:48:24;4.65;;;1.10;;
35188;SDS011;21762;54.480;18.556;2022-07-05T09:51:03;2.00;;;1.15;;
35188;SDS011;21762;54.480;18.556;2022-07-05T09:53:44;2.03;;;0.98;;
35188;SDS011;21762;54.480;18.556;2022-07-05T09:56:13;2.85;;;1.00;;
35188;SDS011;21762;54.480;18.556;2022-07-05T09:58:41;1.85;;;1.00;;
35188;SDS011;21762;54.480;18.556;2022-07-05T10:01:24;1.58;;;1.00;;
35188;SDS011;21762;54.480;18.556;2022-07-05T10:03:53;1.58;;;0.77;;
35188;SDS011;21762;54.480;18.556;2022-07-05T10:06:22;3.30;;;1.05;;
35188;SDS011;21762;54.480;18.556;2022-07-05T10:08:51;2.17;;;0.95;;
35188;SDS011;21762;54.480;18.556;2022-07-05T10:11:20;4.32;;;0.70;;
35188;SDS011;21762;54.480;18.556;2022-07-05T10:13:54;2.92;;;1.10;;
35188;SDS011;21762;54.480;18.556;2022-07-05T10:16:24;2.90;;;1.00;;
35188;SDS011;21762;54.480;18.556;2022-07-05T10:18:53;2.20;;;0.80;;
35188;SDS011;21762;54.480;18.556;2022-07-05T10:21:23;2.63;;;0.90;;
35188;SDS011;21762;54.480;18.556;2022-07-05T10:23:52;2.25;;;1.00;;
35188;SDS011;21762;54.480;18.556;2022-07-05T10:26:23;2.75;;;1.02;;
35188;SDS011;21762;54.480;18.556;2022-07-05T10:28:52;1.33;;;0.90;;
35188;SDS011;21762;54.480;18.556;2022-07-05T10:31:27;3.80;;;0.82;;
35188;SDS011;21762;54.480;18.556;2022-07-05T10:33:56;8.57;;;0.80;;
35188;SDS011;21762;54.480;18.556;2022-07-05T10:36:27;5.30;;;1.20;;
35188;SDS011;21762;54.480;18.556;2022-07-05T10:38:55;2.63;;;0.90;;
35188;SDS011;21762;54.480;18.556;2022-07-05T10:41:24;2.60;;;0.88;;
35188;SDS011;21762;54.480;18.556;2022-07-05T10:43:53;2.40;;;0.85;;
35188;SDS011;21762;54.480;18.556;2022-07-05T10:46:33;5.03;;;0.93;;
35188;SDS011;21762;54.480;18.556;2022-07-05T10:49:14;2.55;;;0.90;;
35188;SDS011;21762;54.480;18.556;2022-07-05T10:51:44;4.40;;;0.80;;
35188;SDS011;21762;54.480;18.556;2022-07-05T10:54:17;1.67;;;1.05;;
35188;SDS011;21762;54.480;18.556;2022-07-05T11:02:34;5.18;;;1.70;;
35188;SDS011;21762;54.480;18.556;2022-07-05T11:05:02;7.20;;;1.90;;
35188;SDS011;21762;54.480;18.556;2022-07-05T11:10:26;4.43;;;1.70;;
35188;SDS011;21762;54.480;18.556;2022-07-05T11:12:54;4.13;;;1.63;;
35188;SDS011;21762;54.480;18.556;2022-07-05T11:15:22;4.43;;;1.60;;
35188;SDS011;21762;54.480;18.556;2022-07-05T11:17:51;7.43;;;1.40;;
35188;SDS011;21762;54.480;18.556;2022-07-05T11:20:43;2.95;;;1.70;;
35188;SDS011;21762;54.480;18.556;2022-07-05T11:23:11;3.63;;;1.88;;
35188;SDS011;21762;54.480;18.556;2022-07-05T11:25:41;5.05;;;1.90;;
35188;SDS011;21762;54.480;18.556;2022-07-05T11:28:17;4.05;;;1.80;;
35188;SDS011;21762;54.480;18.556;2022-07-05T11:30:48;2.42;;;1.42;;
35188;SDS011;21762;54.480;18.556;2022-07-05T11:33:32;9.88;;;2.53;;
35188;SDS011;21762;54.480;18.556;2022-07-05T11:36:06;2.60;;;1.90;;
35188;SDS011;21762;54.480;18.556;2022-07-05T11:38:35;5.15;;;1.80;;
35188;SDS011;21762;54.480;18.556;2022-07-05T11:41:38;9.02;;;2.30;;
35188;SDS011;21762;54.480;18.556;2022-07-05T11:44:06;14.05;;;1.90;;
35188;SDS011;21762;54.480;18.556;2022-07-05T11:46:35;5.00;;;1.85;;
35188;SDS011;21762;54.480;18.556;2022-07-05T11:49:13;5.97;;;1.75;;
35188;SDS011;21762;54.480;18.556;2022-07-05T11:51:52;4.28;;;1.50;;
35188;SDS011;21762;54.480;18.556;2022-07-05T11:54:22;2.58;;;1.48;;
35188;SDS011;21762;54.480;18.556;2022-07-05T11:56:50;1.55;;;1.30;;
35188;SDS011;21762;54.480;18.556;2022-07-05T11:59:18;4.43;;;1.40;;
35188;SDS011;21762;54.480;18.556;2022-07-05T12:01:47;1.88;;;1.48;;
35188;SDS011;21762;54.480;18.556;2022-07-05T12:04:21;1.50;;;1.15;;
35188;SDS011;21762;54.480;18.556;2022-07-05T12:06:50;2.72;;;1.50;;
35188;SDS011;21762;54.480;18.556;2022-07-05T12:09:22;3.30;;;1.20;;
35188;SDS011;21762;54.480;18.556;2022-07-05T12:11:51;5.57;;;1.30;;
35188;SDS011;21762;54.480;18.556;2022-07-05T12:14:37;2.67;;;1.25;;
35188;SDS011;21762;54.480;18.556;2022-07-05T12:17:13;4.07;;;1.30;;
35188;SDS011;21762;54.480;18.556;2022-07-05T12:19:48;4.35;;;2.03;;
35188;SDS011;21762;54.480;18.556;2022-07-05T12:22:27;5.70;;;1.20;;
35188;SDS011;21762;54.480;18.556;2022-07-05T12:24:56;3.28;;;1.30;;
35188;SDS011;21762;54.480;18.556;2022-07-05T12:27:25;8.30;;;1.60;;
35188;SDS011;21762;54.480;18.556;2022-07-05T12:29:53;5.07;;;1.30;;
35188;SDS011;21762;54.480;18.556;2022-07-05T12:32:21;3.08;;;1.10;;
35188;SDS011;21762;54.480;18.556;2022-07-05T12:34:51;1.92;;;1.30;;
35188;SDS011;21762;54.480;18.556;2022-07-05T12:37:20;4.88;;;1.48;;
35188;SDS011;21762;54.480;18.556;2022-07-05T12:39:48;3.90;;;1.58;;
35188;SDS011;21762;54.480;18.556;2022-07-05T12:42:29;7.07;;;1.40;;
35188;SDS011;21762;54.480;18.556;2022-07-05T12:45:05;7.32;;;1.50;;
35188;SDS011;21762;54.480;18.556;2022-07-05T12:47:36;2.30;;;1.13;;
35188;SDS011;21762;54.480;18.556;2022-07-05T12:50:06;4.63;;;1.00;;
35188;SDS011;21762;54.480;18.556;2022-07-05T12:55:47;5.82;;;1.27;;
35188;SDS011;21762;54.480;18.556;2022-07-05T12:58:33;5.38;;;1.25;;
35188;SDS011;21762;54.480;18.556;2022-07-05T13:01:22;8.52;;;1.50;;
35188;SDS011;21762;54.480;18.556;2022-07-05T13:03:54;3.53;;;1.05;;
35188;SDS011;21762;54.480;18.556;2022-07-05T13:06:43;4.85;;;1.15;;
35188;SDS011;21762;54.480;18.556;2022-07-05T13:09:16;3.35;;;1.38;;
35188;SDS011;21762;54.480;18.556;2022-07-05T13:12:07;6.13;;;1.30;;
35188;SDS011;21762;54.480;18.556;2022-07-05T13:14:37;3.00;;;1.00;;
35188;SDS011;21762;54.480;18.556;2022-07-05T13:17:06;1.63;;;0.80;;
35188;SDS011;21762;54.480;18.556;2022-07-05T13:19:35;5.82;;;1.02;;
35188;SDS011;21762;54.480;18.556;2022-07-05T13:22:05;2.53;;;0.93;;
35188;SDS011;21762;54.480;18.556;2022-07-05T13:24:33;6.18;;;1.17;;
35188;SDS011;21762;54.480;18.556;2022-07-05T13:27:02;2.30;;;0.77;;
35188;SDS011;21762;54.480;18.556;2022-07-05T13:29:30;3.60;;;1.20;;
35188;SDS011;21762;54.480;18.556;2022-07-05T13:31:59;1.92;;;1.20;;
35188;SDS011;21762;54.480;18.556;2022-07-05T13:34:27;4.00;;;0.98;;
35188;SDS011;21762;54.480;18.556;2022-07-05T13:36:56;7.53;;;1.27;;
35188;SDS011;21762;54.480;18.556;2022-07-05T13:39:27;2.78;;;0.80;;
35188;SDS011;21762;54.480;18.556;2022-07-05T13:41:55;5.38;;;1.10;;
35188;SDS011;21762;54.480;18.556;2022-07-05T13:44:24;1.55;;;1.10;;
35188;SDS011;21762;54.480;18.556;2022-07-05T13:46:52;4.35;;;1.10;;
35188;SDS011;21762;54.480;18.556;2022-07-05T13:49:20;3.47;;;1.23;;
35188;SDS011;21762;54.480;18.556;2022-07-05T13:51:49;5.43;;;1.45;;
35188;SDS011;21762;54.480;18.556;2022-07-05T13:54:17;3.88;;;1.65;;
35188;SDS011;21762;54.480;18.556;2022-07-05T13:56:46;6.88;;;1.50;;
35188;SDS011;21762;54.480;18.556;2022-07-05T13:59:18;3.47;;;1.00;;
35188;SDS011;21762;54.480;18.556;2022-07-05T14:01:46;2.83;;;1.10;;
35188;SDS011;21762;54.480;18.556;2022-07-05T14:04:14;3.35;;;1.00;;
35188;SDS011;21762;54.480;18.556;2022-07-05T14:06:42;3.25;;;1.13;;
35188;SDS011;21762;54.480;18.556;2022-07-05T14:09:10;2.33;;;1.13;;
35188;SDS011;21762;54.480;18.556;2022-07-05T14:11:39;3.40;;;1.25;;
35188;SDS011;21762;54.480;18.556;2022-07-05T14:14:08;5.00;;;1.52;;
35188;SDS011;21762;54.480;18.556;2022-07-05T14:16:39;2.97;;;1.10;;
35188;SDS011;21762;54.480;18.556;2022-07-05T14:19:07;5.03;;;1.13;;
35188;SDS011;21762;54.480;18.556;2022-07-05T14:21:36;2.22;;;1.00;;
35188;SDS011;21762;54.480;18.556;2022-07-05T14:24:04;2.72;;;1.35;;
35188;SDS011;21762;54.480;18.556;2022-07-05T14:26:33;4.78;;;1.30;;
35188;SDS011;21762;54.480;18.556;2022-07-05T14:29:01;6.82;;;1.33;;
35188;SDS011;21762;54.480;18.556;2022-07-05T14:31:32;4.25;;;1.40;;
35188;SDS011;21762;54.480;18.556;2022-07-05T14:34:00;6.00;;;1.05;;
35188;SDS011;21762;54.480;18.556;2022-07-05T14:36:28;5.22;;;1.10;;
35188;SDS011;21762;54.480;18.556;2022-07-05T14:38:57;3.15;;;1.40;;
35188;SDS011;21762;54.480;18.556;2022-07-05T14:41:27;4.10;;;1.20;;
35188;SDS011;21762;54.480;18.556;2022-07-05T14:43:55;2.67;;;1.20;;
35188;SDS011;21762;54.480;18.556;2022-07-05T14:46:23;4.45;;;1.50;;
35188;SDS011;21762;54.480;18.556;2022-07-05T14:48:53;5.28;;;1.00;;
35188;SDS011;21762;54.480;18.556;2022-07-05T14:51:21;6.20;;;1.52;;
35188;SDS011;21762;54.480;18.556;2022-07-05T14:53:49;7.75;;;1.05;;
35188;SDS011;21762;54.480;18.556;2022-07-05T14:56:17;4.05;;;1.30;;
35188;SDS011;21762;54.480;18.556;2022-07-05T14:58:45;5.57;;;1.27;;
35188;SDS011;21762;54.480;18.556;2022-07-05T15:01:15;1.88;;;1.33;;
35188;SDS011;21762;54.480;18.556;2022-07-05T15:03:44;6.60;;;1.40;;
35188;SDS011;21762;54.480;18.556;2022-07-05T15:06:14;3.40;;;1.80;;
35188;SDS011;21762;54.480;18.556;2022-07-05T15:08:43;4.88;;;1.10;;
35188;SDS011;21762;54.480;18.556;2022-07-05T15:11:11;3.53;;;1.27;;
35188;SDS011;21762;54.480;18.556;2022-07-05T15:13:39;5.40;;;1.35;;